createdAt,value
2022-09-11T00:00:03.651Z,21.17
2022-09-11T00:01:17.117Z,21.98
2022-09-11T00:02:19.327Z,22.17
2022-09-11T00:03:24.646Z,22.35
2022-09-11T00:04:27.583Z,22.10
2022-09-11T00:05:31.283Z,21.88
2022-09-11T00:06:34.670Z,22.27
2022-09-11T00:07:41.706Z,22.38
2022-09-11T00:08:48.662Z,22.35
2022-09-11T00:09:50.949Z,21.98
2022-09-11T00:10:57.243Z,23.23
2022-09-11T00:12:01.959Z,22.15
2022-09-11T00:13:07.507Z,21.95
2022-09-11T00:14:15.171Z,23.23
2022-09-11T00:15:20.240Z,24.33
2022-09-11T00:16:29.140Z,26.63
2022-09-11T00:17:32.264Z,26.75
2022-09-11T00:18:37.183Z,28.08
2022-09-11T00:19:42.900Z,25.40
2022-09-11T00:20:51.234Z,26.58
2022-09-11T00:21:57.829Z,29.48
2022-09-11T00:23:05.272Z,28.90
2022-09-11T00:24:14.044Z,26.85
2022-09-11T00:25:16.613Z,25.15
2022-09-11T00:26:20.952Z,24.67
2022-09-11T00:27:22.991Z,26.23
2022-09-11T00:28:26.059Z,24.65
2022-09-11T00:29:32.791Z,25.50
2022-09-11T00:30:36.854Z,24.23
2022-09-11T00:31:44.091Z,22.63
2022-09-11T00:32:50.151Z,24.45
2022-09-11T00:33:53.147Z,25.77
2022-09-11T00:34:55.714Z,24.52
2022-09-11T00:36:08.319Z,24.42
2022-09-11T00:37:11.447Z,24.50
2022-09-11T00:38:17.257Z,24.30
2022-09-11T00:39:24.245Z,23.98
2022-09-11T00:40:27.752Z,23.50
2022-09-11T00:41:36.567Z,23.70
2022-09-11T00:42:38.683Z,23.85
2022-09-11T00:43:55.622Z,24.42
2022-09-11T00:45:04.481Z,24.73
2022-09-11T00:47:13.351Z,24.98
2022-09-11T00:48:20.496Z,24.23
2022-09-11T00:49:42.483Z,24.77
2022-09-11T00:50:48.743Z,25.20
2022-09-11T00:51:59.762Z,25.40
2022-09-11T00:53:11.663Z,24.90
2022-09-11T00:54:22.628Z,24.75
2022-09-11T00:55:29.320Z,24.92
2022-09-11T00:56:36.475Z,24.85
2022-09-11T00:58:26.223Z,26.23
2022-09-11T00:59:31.407Z,24.85
2022-09-11T01:00:35.570Z,26.58
2022-09-11T01:01:37.671Z,25.70
2022-09-11T01:02:43.192Z,25.83
2022-09-11T01:03:47.511Z,25.80
2022-09-11T01:04:51.299Z,26.35
2022-09-11T01:05:54.910Z,25.15
2022-09-11T01:07:08.128Z,25.33
2022-09-11T01:08:10.799Z,25.25
2022-09-11T01:09:16.207Z,25.63
2022-09-11T01:10:19.387Z,26.67
2022-09-11T01:11:41.932Z,26.52
2022-09-11T01:13:23.239Z,26.52
2022-09-11T01:14:32.453Z,27.58
2022-09-11T01:15:54.017Z,26.52
2022-09-11T01:17:26.259Z,27.30
2022-09-11T01:18:43.076Z,27.45
2022-09-11T01:20:06.569Z,26.98
2022-09-11T01:21:35.811Z,27.33
2022-09-11T01:22:42.482Z,27.80
2022-09-11T01:24:09.572Z,26.55
2022-09-11T01:25:38.294Z,26.70
2022-09-11T01:27:05.036Z,26.98
2022-09-11T01:28:15.950Z,30.17
2022-09-11T01:29:25.208Z,29.65
2022-09-11T01:30:36.111Z,29.67
2022-09-11T01:31:49.596Z,28.85
2022-09-11T01:33:25.246Z,29.90
2022-09-11T01:34:45.620Z,28.30
2022-09-11T01:35:56.520Z,29.73
2022-09-11T01:37:08.471Z,28.77
2022-09-11T01:38:14.947Z,28.80
2022-09-11T01:39:22.632Z,30.88
2022-09-11T01:40:31.672Z,32.15
2022-09-11T01:42:02.848Z,30.98
2022-09-11T01:44:04.540Z,32.22
2022-09-11T01:45:07.889Z,32.80
2022-09-11T01:46:18.548Z,32.92
2022-09-11T01:47:24.402Z,33.72
2022-09-11T01:48:39.165Z,33.63
2022-09-11T01:49:51.806Z,34.88
2022-09-11T01:51:01.138Z,33.33
2022-09-11T01:52:09.330Z,32.33
2022-09-11T01:53:17.382Z,34.40
2022-09-11T01:54:26.285Z,33.45
2022-09-11T01:55:42.987Z,34.45
2022-09-11T01:56:52.681Z,35.08
2022-09-11T01:58:26.486Z,33.45
2022-09-11T01:59:45.929Z,33.67
2022-09-11T02:00:54.180Z,35.17
2022-09-11T02:02:09.973Z,34.13
2022-09-11T02:03:25.378Z,35.55
2022-09-11T02:04:51.911Z,34.78
2022-09-11T02:06:03.684Z,35.53
2022-09-11T02:07:28.360Z,33.20
2022-09-11T02:08:54.759Z,34.60
2022-09-11T02:10:15.705Z,34.55
2022-09-11T02:11:20.764Z,32.88
2022-09-11T02:12:31.280Z,33.22
2022-09-11T02:14:06.716Z,33.45
2022-09-11T02:15:20.356Z,32.58
2022-09-11T02:16:32.873Z,35.38
2022-09-11T02:17:46.644Z,32.40
2022-09-11T02:19:03.791Z,31.27
2022-09-11T02:20:09.323Z,32.22
2022-09-11T02:21:12.026Z,32.15
2022-09-11T02:22:18.731Z,32.28
2022-09-11T02:23:23.565Z,31.95
2022-09-11T02:24:30.093Z,31.80
2022-09-11T02:25:36.147Z,32.78
2022-09-11T02:26:48.539Z,32.72
2022-09-11T02:29:08.626Z,32.42
2022-09-11T02:30:11.705Z,33.17
2022-09-11T02:31:14.753Z,32.80
2022-09-11T02:32:19.529Z,31.55
2022-09-11T02:33:38.875Z,32.03
2022-09-11T02:34:45.531Z,32.25
2022-09-11T02:35:53.266Z,32.15
2022-09-11T02:37:20.661Z,33.13
2022-09-11T02:38:42.890Z,32.30
2022-09-11T02:39:48.747Z,30.25
2022-09-11T02:41:10.654Z,31.77
2022-09-11T02:42:24.696Z,30.98
2022-09-11T02:44:10.080Z,31.77
2022-09-11T02:45:20.106Z,32.70
2022-09-11T02:46:32.543Z,32.90
2022-09-11T02:47:57.416Z,33.60
2022-09-11T02:49:17.149Z,32.50
2022-09-11T02:50:46.698Z,32.13
2022-09-11T02:52:11.820Z,31.70
2022-09-11T02:53:49.685Z,31.75
2022-09-11T02:55:11.820Z,32.25
2022-09-11T02:56:40.721Z,31.42
2022-09-11T02:57:51.831Z,32.47
2022-09-11T02:58:57.243Z,30.42
2022-09-11T03:00:04.079Z,33.50
2022-09-11T03:01:10.498Z,32.53
2022-09-11T03:02:18.415Z,32.22
2022-09-11T03:03:24.352Z,31.00
2022-09-11T03:04:35.679Z,30.77
2022-09-11T03:05:40.374Z,32.75
2022-09-11T03:06:43.311Z,32.72
2022-09-11T03:07:45.544Z,33.20
2022-09-11T03:08:49.166Z,32.00
2022-09-11T03:09:53.004Z,33.20
2022-09-11T03:10:57.884Z,31.40
2022-09-11T03:12:02.334Z,31.15
2022-09-11T03:13:14.992Z,32.63
2022-09-11T03:14:21.708Z,31.95
2022-09-11T03:15:25.070Z,33.03
2022-09-11T03:16:28.871Z,32.72
2022-09-11T03:17:31.620Z,33.28
2022-09-11T03:18:34.353Z,33.33
2022-09-11T03:19:36.433Z,31.98
2022-09-11T03:20:40.307Z,32.30
2022-09-11T03:21:44.188Z,32.65
2022-09-11T03:22:46.254Z,32.83
2022-09-11T03:23:49.725Z,34.17
2022-09-11T03:24:52.270Z,32.33
2022-09-11T03:25:59.020Z,32.42
2022-09-11T03:27:01.471Z,32.13
2022-09-11T03:28:05.375Z,32.65
2022-09-11T03:29:09.439Z,34.20
2022-09-11T03:30:12.059Z,32.90
2022-09-11T03:31:15.582Z,34.22
2022-09-11T03:32:17.715Z,33.50
2022-09-11T03:33:19.970Z,33.97
2022-09-11T03:34:28.070Z,33.30
2022-09-11T03:35:30.037Z,33.42
2022-09-11T03:36:34.746Z,34.70
2022-09-11T03:37:38.844Z,33.88
2022-09-11T03:38:45.575Z,34.72
2022-09-11T03:39:51.387Z,34.55
2022-09-11T03:40:56.742Z,32.75
2022-09-11T03:41:58.918Z,33.45
2022-09-11T03:43:02.941Z,33.22
2022-09-11T03:44:05.702Z,33.15
2022-09-11T03:45:10.058Z,33.67
2022-09-11T03:46:12.000Z,33.38
2022-09-11T03:47:14.811Z,34.05
2022-09-11T03:48:16.880Z,33.15
2022-09-11T03:49:20.851Z,34.25
2022-09-11T03:50:24.871Z,32.70
2022-09-11T03:51:27.287Z,33.00
2022-09-11T03:52:31.277Z,33.70
2022-09-11T03:53:35.031Z,31.40
2022-09-11T03:54:39.906Z,33.20
2022-09-11T03:55:45.627Z,31.92
2022-09-11T03:56:47.671Z,31.30
2022-09-11T03:57:54.850Z,32.38
2022-09-11T03:59:03.015Z,31.08
2022-09-11T04:00:07.873Z,30.30
2022-09-11T04:01:23.333Z,31.30
2022-09-11T04:02:31.434Z,30.52
2022-09-11T04:03:35.010Z,30.88
2022-09-11T04:04:38.297Z,31.60
2022-09-11T04:05:44.593Z,31.35
2022-09-11T04:06:46.893Z,29.38
2022-09-11T04:07:49.122Z,27.45
2022-09-11T04:08:56.157Z,27.02
2022-09-11T04:09:59.860Z,27.55
2022-09-11T04:11:08.259Z,26.92
2022-09-11T04:12:12.979Z,25.92
2022-09-11T04:13:16.859Z,24.42
2022-09-11T04:14:19.509Z,25.58
2022-09-11T04:15:25.209Z,24.00
2022-09-11T04:16:28.083Z,24.27
2022-09-11T04:17:31.043Z,22.90
2022-09-11T04:18:37.431Z,23.30
2022-09-11T04:19:41.192Z,23.35
2022-09-11T04:20:44.759Z,22.98
2022-09-11T04:21:48.469Z,23.80
2022-09-11T04:22:54.455Z,22.30
2022-09-11T04:24:00.058Z,22.33
2022-09-11T04:25:07.124Z,22.02
2022-09-11T04:26:21.498Z,22.90
2022-09-11T04:27:28.921Z,22.50
2022-09-11T04:28:33.168Z,23.30
2022-09-11T04:29:35.249Z,23.08
2022-09-11T04:30:39.878Z,22.15
2022-09-11T04:31:43.531Z,22.35
2022-09-11T04:32:50.527Z,22.20
2022-09-11T04:33:57.378Z,21.90
2022-09-11T04:35:02.810Z,21.30
2022-09-11T04:36:17.628Z,21.30
2022-09-11T04:37:20.464Z,20.60
2022-09-11T04:38:24.072Z,21.10
2022-09-11T04:39:28.030Z,20.58
2022-09-11T04:40:30.040Z,20.10
2022-09-11T04:41:32.393Z,20.33
2022-09-11T04:42:36.567Z,19.35
2022-09-11T04:43:40.508Z,20.95
2022-09-11T04:44:44.185Z,21.23
2022-09-11T04:45:46.393Z,25.63
2022-09-11T04:46:48.748Z,23.25
2022-09-11T04:47:53.113Z,21.38
2022-09-11T04:48:59.433Z,19.15
2022-09-11T04:50:02.659Z,19.67
2022-09-11T04:51:08.041Z,21.20
2022-09-11T04:52:10.557Z,19.02
2022-09-11T04:53:13.982Z,20.50
2022-09-11T04:54:21.378Z,19.27
2022-09-11T04:55:23.955Z,19.02
2022-09-11T04:56:31.566Z,20.48
2022-09-11T04:57:34.012Z,19.13
2022-09-11T04:58:38.233Z,20.70
2022-09-11T04:59:40.195Z,20.90
2022-09-11T05:00:47.765Z,19.77
2022-09-11T05:01:50.425Z,19.90
2022-09-11T05:02:54.984Z,18.45
2022-09-11T05:03:57.563Z,19.48
2022-09-11T05:05:03.020Z,18.88
2022-09-11T05:06:08.806Z,19.25
2022-09-11T05:07:13.763Z,19.25
2022-09-11T05:08:19.129Z,18.63
2022-09-11T05:09:23.073Z,19.05
2022-09-11T05:10:27.413Z,17.90
2022-09-11T05:11:30.400Z,19.35
2022-09-11T05:12:32.621Z,18.40
2022-09-11T05:13:36.609Z,18.23
2022-09-11T05:14:39.751Z,17.45
2022-09-11T05:15:41.779Z,17.25
2022-09-11T05:16:45.143Z,18.08
2022-09-11T05:17:48.622Z,16.80
2022-09-11T05:18:54.246Z,16.15
2022-09-11T05:19:59.070Z,16.58
2022-09-11T05:21:06.486Z,16.02
2022-09-11T05:22:09.177Z,15.60
2022-09-11T05:23:15.066Z,15.85
2022-09-11T05:24:17.652Z,17.00
2022-09-11T05:25:19.740Z,16.30
2022-09-11T05:26:27.125Z,16.40
2022-09-11T05:27:30.199Z,16.05
2022-09-11T05:28:33.796Z,16.67
2022-09-11T05:29:37.124Z,17.00
2022-09-11T05:30:44.989Z,15.30
2022-09-11T05:31:47.950Z,15.02
2022-09-11T05:32:56.390Z,15.48
2022-09-11T05:34:02.171Z,15.40
2022-09-11T05:35:05.458Z,16.02
2022-09-11T05:36:07.849Z,15.43
2022-09-11T05:37:09.979Z,15.57
2022-09-11T05:38:18.804Z,15.65
2022-09-11T05:39:20.903Z,15.07
2022-09-11T05:40:23.389Z,14.98
2022-09-11T05:41:33.437Z,14.85
2022-09-11T05:42:35.470Z,19.48
2022-09-11T05:43:38.830Z,16.23
2022-09-11T05:44:40.907Z,15.43
2022-09-11T05:45:44.375Z,14.50
2022-09-11T05:46:47.201Z,14.57
2022-09-11T05:47:51.381Z,14.90
2022-09-11T05:48:56.231Z,14.50
2022-09-11T05:49:58.352Z,14.80
2022-09-11T05:51:07.161Z,13.95
2022-09-11T05:52:10.585Z,13.93
2022-09-11T05:53:12.664Z,14.85
2022-09-11T05:54:15.343Z,14.38
2022-09-11T05:55:17.378Z,14.02
2022-09-11T05:56:22.625Z,15.63
2022-09-11T05:57:26.564Z,14.40
2022-09-11T05:58:32.566Z,14.48
2022-09-11T05:59:34.888Z,14.23
2022-09-11T06:00:38.385Z,14.18
2022-09-11T06:01:40.647Z,13.18
2022-09-11T06:02:51.061Z,14.73
2022-09-11T06:03:56.267Z,14.63
2022-09-11T06:05:03.116Z,14.80
2022-09-11T06:06:09.628Z,14.60
2022-09-11T06:07:12.716Z,14.52
2022-09-11T06:08:19.728Z,15.13
2022-09-11T06:09:21.929Z,13.77
2022-09-11T06:10:24.295Z,14.30
2022-09-11T06:11:27.112Z,13.95
2022-09-11T06:12:29.490Z,14.48
2022-09-11T06:13:35.913Z,14.80
2022-09-11T06:14:38.279Z,14.25
2022-09-11T06:15:47.091Z,14.60
2022-09-11T06:17:52.254Z,15.02
2022-09-11T06:18:54.399Z,14.80
2022-09-11T06:19:57.223Z,14.80
2022-09-11T06:21:07.341Z,15.65
2022-09-11T06:22:16.326Z,14.27
2022-09-11T06:23:19.842Z,14.50
2022-09-11T06:24:21.890Z,14.80
2022-09-11T06:25:25.438Z,15.02
2022-09-11T06:26:29.583Z,14.90
2022-09-11T06:27:32.405Z,14.88
2022-09-11T06:28:36.011Z,14.20
2022-09-11T06:29:38.487Z,13.85
2022-09-11T06:30:42.173Z,14.52
2022-09-11T06:31:46.109Z,15.13
2022-09-11T06:32:49.195Z,15.50
2022-09-11T06:33:51.745Z,15.70
2022-09-11T06:34:54.680Z,15.25
2022-09-11T06:36:00.943Z,15.45
2022-09-11T06:37:03.238Z,15.80
2022-09-11T06:38:06.705Z,15.95
2022-09-11T06:39:09.056Z,15.75
2022-09-11T06:40:13.423Z,16.63
2022-09-11T06:41:16.897Z,16.25
2022-09-11T06:42:19.457Z,15.35
2022-09-11T06:43:24.652Z,15.48
2022-09-11T06:44:27.565Z,16.17
2022-09-11T06:45:33.928Z,16.15
2022-09-11T06:46:36.270Z,15.65
2022-09-11T06:47:38.925Z,15.30
2022-09-11T06:48:51.240Z,15.98
2022-09-11T06:49:59.302Z,16.70
2022-09-11T06:51:28.405Z,15.70
2022-09-11T06:52:35.558Z,14.75
2022-09-11T06:54:01.131Z,14.95
2022-09-11T06:55:13.551Z,15.63
2022-09-11T06:56:22.428Z,14.50
2022-09-11T06:57:25.631Z,15.05
2022-09-11T06:58:29.473Z,14.43
2022-09-11T06:59:32.336Z,13.82
2022-09-11T07:00:36.799Z,14.38
2022-09-11T07:01:39.862Z,14.15
2022-09-11T07:02:42.610Z,14.77
2022-09-11T07:03:48.858Z,13.30
2022-09-11T07:04:53.389Z,13.65
2022-09-11T07:05:58.031Z,14.48
2022-09-11T07:07:00.097Z,14.80
2022-09-11T07:08:03.333Z,12.85
2022-09-11T07:09:11.945Z,12.82
2022-09-11T07:10:24.224Z,12.40
2022-09-11T07:11:34.548Z,11.80
2022-09-11T07:12:38.971Z,11.02
2022-09-11T07:13:42.089Z,11.70
2022-09-11T07:14:44.234Z,11.45
2022-09-11T07:16:03.795Z,11.38
2022-09-11T07:17:08.862Z,11.13
2022-09-11T07:18:11.593Z,10.57
2022-09-11T07:19:13.838Z,10.23
2022-09-11T07:20:17.747Z,10.55
2022-09-11T07:21:23.186Z,9.07
2022-09-11T07:22:29.815Z,10.23
2022-09-11T07:23:31.975Z,9.45
2022-09-11T07:24:34.155Z,8.00
2022-09-11T07:25:40.822Z,7.97
2022-09-11T07:26:43.113Z,6.72
2022-09-11T07:28:04.700Z,7.13
2022-09-11T07:29:06.773Z,7.20
2022-09-11T07:30:11.944Z,7.55
2022-09-11T07:31:20.910Z,7.32
2022-09-11T07:32:27.194Z,7.80
2022-09-11T07:33:31.344Z,6.90
2022-09-11T07:34:38.336Z,5.88
2022-09-11T07:35:43.724Z,6.50
2022-09-11T07:36:51.848Z,6.05
2022-09-11T07:37:58.682Z,6.45
2022-09-11T07:39:03.667Z,6.57
2022-09-11T07:40:32.406Z,6.90
2022-09-11T07:41:36.097Z,6.82
2022-09-11T07:42:44.608Z,6.47
2022-09-11T07:43:48.385Z,6.85
2022-09-11T07:44:50.883Z,6.05
2022-09-11T07:45:54.093Z,5.70
2022-09-11T07:46:56.101Z,5.75
2022-09-11T07:48:00.376Z,6.07
2022-09-11T07:49:03.120Z,6.15
2022-09-11T07:50:06.409Z,5.47
2022-09-11T07:51:14.068Z,6.38
2022-09-11T07:52:18.627Z,6.00
2022-09-11T07:53:26.373Z,5.70
2022-09-11T07:54:29.243Z,5.38
2022-09-11T07:55:34.808Z,5.35
2022-09-11T07:56:38.584Z,5.25
2022-09-11T07:57:42.720Z,5.53
2022-09-11T07:58:46.151Z,5.50
2022-09-11T07:59:48.320Z,5.15
2022-09-11T08:00:58.335Z,4.95
2022-09-11T08:02:00.540Z,4.78
2022-09-11T08:03:04.376Z,4.85
2022-09-11T08:04:12.334Z,5.07
2022-09-11T08:05:15.728Z,4.93
2022-09-11T08:06:22.344Z,4.63
2022-09-11T08:07:26.382Z,4.93
2022-09-11T08:08:29.917Z,5.40
2022-09-11T08:09:33.308Z,5.47
2022-09-11T08:10:41.051Z,5.03
2022-09-11T08:11:48.965Z,4.72
2022-09-11T08:12:56.800Z,4.80
2022-09-11T08:14:01.501Z,5.07
2022-09-11T08:15:03.848Z,4.80
2022-09-11T08:16:06.603Z,4.93
2022-09-11T08:17:09.035Z,5.28
2022-09-11T08:18:12.990Z,5.45
2022-09-11T08:19:21.763Z,5.25
2022-09-11T08:20:28.876Z,5.05
2022-09-11T08:21:31.194Z,4.95
2022-09-11T08:22:33.648Z,5.20
2022-09-11T08:23:38.538Z,4.80
2022-09-11T08:24:41.517Z,4.53
2022-09-11T08:25:45.361Z,4.68
2022-09-11T08:26:49.287Z,4.63
2022-09-11T08:27:53.329Z,5.05
2022-09-11T08:29:00.247Z,4.80
2022-09-11T08:30:06.186Z,5.57
2022-09-11T08:31:08.443Z,4.32
2022-09-11T08:32:10.952Z,4.75
2022-09-11T08:33:14.276Z,5.22
2022-09-11T08:34:17.414Z,4.70
2022-09-11T08:35:20.523Z,4.10
2022-09-11T08:36:23.883Z,4.45
2022-09-11T08:37:27.404Z,4.40
2022-09-11T08:38:30.277Z,4.75
2022-09-11T08:39:32.495Z,4.68
2022-09-11T08:40:39.855Z,4.40
2022-09-11T08:41:53.691Z,5.10
2022-09-11T08:43:02.525Z,4.32
2022-09-11T08:44:27.346Z,4.30
2022-09-11T08:45:38.442Z,5.00
2022-09-11T08:46:48.562Z,4.82
2022-09-11T08:47:57.475Z,4.65
2022-09-11T08:49:30.530Z,4.68
2022-09-11T08:50:41.648Z,4.60
2022-09-11T08:51:49.055Z,4.82
2022-09-11T08:52:55.550Z,4.65
2022-09-11T08:54:02.566Z,5.15
2022-09-11T08:55:06.712Z,4.53
2022-09-11T08:56:15.651Z,4.25
2022-09-11T08:57:41.022Z,4.82
2022-09-11T09:00:07.689Z,4.20
2022-09-11T09:01:54.509Z,4.78
2022-09-11T09:03:09.186Z,4.25
2022-09-11T09:04:35.816Z,4.10
2022-09-11T09:06:08.791Z,4.80
2022-09-11T09:08:08.922Z,4.07
2022-09-11T09:09:13.719Z,3.90
2022-09-11T09:10:47.535Z,3.95
2022-09-11T09:12:21.041Z,4.25
2022-09-11T09:13:42.823Z,3.55
2022-09-11T09:15:00.049Z,3.85
2022-09-11T09:16:30.046Z,3.80
2022-09-11T09:17:43.527Z,3.97
2022-09-11T09:18:51.032Z,3.47
2022-09-11T09:20:06.259Z,3.72
2022-09-11T09:21:20.423Z,3.57
2022-09-11T09:22:54.853Z,3.55
2022-09-11T09:24:03.240Z,3.72
2022-09-11T09:25:11.534Z,3.63
2022-09-11T09:26:17.747Z,3.65
2022-09-11T09:27:30.502Z,3.85
2022-09-11T09:29:00.963Z,3.72
2022-09-11T09:30:07.626Z,3.78
2022-09-11T09:31:15.769Z,3.55
2022-09-11T09:32:30.011Z,3.70
2022-09-11T09:33:38.493Z,3.70
2022-09-11T09:34:46.006Z,3.55
2022-09-11T09:35:48.770Z,3.90
2022-09-11T09:37:18.827Z,3.80
2022-09-11T09:38:26.925Z,4.07
2022-09-11T09:39:32.263Z,3.95
2022-09-11T09:40:58.482Z,5.78
2022-09-11T09:42:08.637Z,4.47
2022-09-11T09:43:41.232Z,3.80
2022-09-11T09:45:21.557Z,3.80
2022-09-11T09:46:35.584Z,3.60
2022-09-11T09:47:44.790Z,3.63
2022-09-11T09:49:48.964Z,3.90
2022-09-11T09:50:51.898Z,3.85
2022-09-11T09:52:04.654Z,3.88
2022-09-11T09:53:33.279Z,3.58
2022-09-11T09:54:36.654Z,3.92
2022-09-11T09:55:40.587Z,4.03
2022-09-11T09:56:49.526Z,4.38
2022-09-11T09:57:51.466Z,4.03
2022-09-11T09:59:12.088Z,3.80
2022-09-11T10:00:19.978Z,4.07
2022-09-11T10:01:40.230Z,3.83
2022-09-11T10:02:49.330Z,4.25
2022-09-11T10:04:25.440Z,3.90
2022-09-11T10:05:34.964Z,3.83
2022-09-11T10:06:37.324Z,3.63
2022-09-11T10:07:57.308Z,3.63
2022-09-11T10:09:03.288Z,4.10
2022-09-11T10:10:06.171Z,3.75
2022-09-11T10:11:12.433Z,3.70
2022-09-11T10:12:24.502Z,3.83
2022-09-11T10:13:29.427Z,4.03
2022-09-11T10:14:51.071Z,4.05
2022-09-11T10:16:18.397Z,4.15
2022-09-11T10:17:23.008Z,3.72
2022-09-11T10:18:42.867Z,4.00
2022-09-11T10:19:45.210Z,3.88
2022-09-11T10:20:47.539Z,4.22
2022-09-11T10:21:49.546Z,3.60
2022-09-11T10:22:53.835Z,3.88
2022-09-11T10:24:01.152Z,4.03
2022-09-11T10:25:16.450Z,3.83
2022-09-11T10:26:29.926Z,3.85
2022-09-11T10:27:43.629Z,4.00
2022-09-11T10:28:47.009Z,4.10
2022-09-11T10:29:50.956Z,4.13
2022-09-11T10:30:55.968Z,3.97
2022-09-11T10:32:02.565Z,3.92
2022-09-11T10:33:16.466Z,4.22
2022-09-11T10:34:24.863Z,3.83
2022-09-11T10:35:29.610Z,3.90
2022-09-11T10:36:32.950Z,3.95
2022-09-11T10:37:35.027Z,3.88
2022-09-11T10:38:59.069Z,4.20
2022-09-11T10:40:19.250Z,4.00
2022-09-11T10:41:25.210Z,4.15
2022-09-11T10:42:29.482Z,4.22
2022-09-11T10:43:52.571Z,4.28
2022-09-11T10:45:11.319Z,3.97
2022-09-11T10:47:25.186Z,4.70
2022-09-11T10:48:27.212Z,4.30
2022-09-11T10:49:34.605Z,4.10
2022-09-11T10:50:36.704Z,4.22
2022-09-11T10:51:45.539Z,4.47
2022-09-11T10:52:58.366Z,4.43
2022-09-11T10:54:09.644Z,4.00
2022-09-11T10:55:15.759Z,4.65
2022-09-11T10:56:17.992Z,4.35
2022-09-11T10:57:30.757Z,4.63
2022-09-11T10:58:38.446Z,4.63
2022-09-11T11:00:21.596Z,5.18
2022-09-11T11:01:23.789Z,4.78
2022-09-11T11:02:36.428Z,4.43
2022-09-11T11:03:41.096Z,4.70
2022-09-11T11:04:43.221Z,4.72
2022-09-11T11:06:04.194Z,4.60
2022-09-11T11:07:40.826Z,5.25
2022-09-11T11:09:14.422Z,5.70
2022-09-11T11:10:24.967Z,5.88
2022-09-11T11:11:56.308Z,5.35
2022-09-11T11:13:28.983Z,5.53
2022-09-11T11:15:04.402Z,5.55
2022-09-11T11:16:18.831Z,6.47
2022-09-11T11:17:33.310Z,5.10
2022-09-11T11:18:44.340Z,4.95
2022-09-11T11:20:09.399Z,5.20
2022-09-11T11:21:19.417Z,5.53
2022-09-11T11:22:28.727Z,5.43
2022-09-11T11:23:51.250Z,5.40
2022-09-11T11:25:12.424Z,4.93
2022-09-11T11:26:36.989Z,5.43
2022-09-11T11:28:16.312Z,4.93
2022-09-11T11:29:18.972Z,6.28
2022-09-11T11:30:38.488Z,5.80
2022-09-11T11:31:49.795Z,5.45
2022-09-11T11:33:09.926Z,6.10
2022-09-11T11:34:27.789Z,5.18
2022-09-11T11:36:02.609Z,5.18
2022-09-11T11:37:20.208Z,4.80
2022-09-11T11:38:35.805Z,4.40
2022-09-11T11:39:52.848Z,4.72
2022-09-11T11:41:03.273Z,4.95
2022-09-11T11:42:30.255Z,4.70
2022-09-11T11:43:34.708Z,4.80
2022-09-11T11:45:00.495Z,4.35
2022-09-11T11:46:15.803Z,3.70
2022-09-11T11:47:26.549Z,5.10
2022-09-11T11:48:51.804Z,5.40
2022-09-11T11:50:18.570Z,4.07
2022-09-11T11:51:27.322Z,4.40
2022-09-11T11:52:32.004Z,3.85
2022-09-11T11:53:48.555Z,3.90
2022-09-11T11:55:20.913Z,3.88
2022-09-11T11:56:47.054Z,3.88
2022-09-11T11:58:10.996Z,4.18
2022-09-11T11:59:25.233Z,3.90
2022-09-11T12:00:29.354Z,4.35
2022-09-11T12:01:48.177Z,3.85
2022-09-11T12:04:14.088Z,3.70
2022-09-11T12:05:20.746Z,3.17
2022-09-11T12:06:22.720Z,3.53
2022-09-11T12:07:28.585Z,5.63
2022-09-11T12:08:30.651Z,3.70
2022-09-11T12:09:35.371Z,3.67
2022-09-11T12:10:40.250Z,3.42
2022-09-11T12:11:45.836Z,4.18
2022-09-11T12:12:53.903Z,5.10
2022-09-11T12:14:02.557Z,5.20
2022-09-11T12:15:10.389Z,4.57
2022-09-11T12:16:28.702Z,3.88
2022-09-11T12:17:33.482Z,3.05
2022-09-11T12:18:35.516Z,3.22
2022-09-11T12:19:37.515Z,3.40
2022-09-11T12:20:45.241Z,3.05
2022-09-11T12:21:53.053Z,3.33
2022-09-11T12:22:55.198Z,2.92
2022-09-11T12:23:57.160Z,3.10
2022-09-11T12:24:59.421Z,3.13
2022-09-11T12:26:16.843Z,3.28
2022-09-11T12:27:34.433Z,2.70
2022-09-11T12:28:38.069Z,2.92
2022-09-11T12:30:09.981Z,3.00
2022-09-11T12:31:14.827Z,2.90
2022-09-11T12:32:16.841Z,3.22
2022-09-11T12:33:47.790Z,3.13
2022-09-11T12:34:50.069Z,2.60
2022-09-11T12:35:53.763Z,2.92
2022-09-11T12:37:01.888Z,2.95
2022-09-11T12:38:06.827Z,3.15
2022-09-11T12:39:34.798Z,2.88
2022-09-11T12:40:49.925Z,2.97
2022-09-11T12:41:54.111Z,3.25
2022-09-11T12:43:00.001Z,2.70
2022-09-11T12:44:04.149Z,2.92
2022-09-11T12:45:30.663Z,2.80
2022-09-11T12:46:33.924Z,3.40
2022-09-11T12:47:42.796Z,3.42
2022-09-11T12:49:00.458Z,3.20
2022-09-11T12:50:11.510Z,2.95
2022-09-11T12:51:26.137Z,3.20
2022-09-11T12:52:40.586Z,3.13
2022-09-11T12:53:47.031Z,3.13
2022-09-11T12:54:51.446Z,3.30
2022-09-11T12:55:58.340Z,3.00
2022-09-11T12:57:36.421Z,3.03
2022-09-11T12:58:45.008Z,3.05
2022-09-11T12:59:54.906Z,2.90
2022-09-11T13:01:25.198Z,3.20
2022-09-11T13:02:42.228Z,3.47
2022-09-11T13:04:12.099Z,3.08
2022-09-11T13:05:27.538Z,3.10
2022-09-11T13:06:58.821Z,2.67
2022-09-11T13:08:18.669Z,2.88
2022-09-11T13:09:22.759Z,2.60
2022-09-11T13:10:40.657Z,2.90
2022-09-11T13:11:55.009Z,3.30
2022-09-11T13:13:37.626Z,2.83
2022-09-11T13:14:48.071Z,2.80
2022-09-11T13:15:52.597Z,2.70
2022-09-11T13:17:05.011Z,3.38
2022-09-11T13:18:31.169Z,3.67
2022-09-11T13:19:36.028Z,3.03
2022-09-11T13:20:38.219Z,2.50
2022-09-11T13:21:42.072Z,2.70
2022-09-11T13:22:47.555Z,2.85
2022-09-11T13:23:51.097Z,2.83
2022-09-11T13:25:07.287Z,2.70
2022-09-11T13:26:18.620Z,3.05
2022-09-11T13:27:28.845Z,2.75
2022-09-11T13:28:39.524Z,3.00
2022-09-11T13:29:43.026Z,2.83
2022-09-11T13:30:57.362Z,3.15
2022-09-11T13:32:05.462Z,3.13
2022-09-11T13:33:11.246Z,3.22
2022-09-11T13:34:18.920Z,2.85
2022-09-11T13:35:27.195Z,3.25
2022-09-11T13:36:34.735Z,2.97
2022-09-11T13:37:58.081Z,3.13
2022-09-11T13:39:03.005Z,2.58
2022-09-11T13:40:08.257Z,2.90
2022-09-11T13:41:20.285Z,2.75
2022-09-11T13:42:26.237Z,4.75
2022-09-11T13:43:50.574Z,4.43
2022-09-11T13:44:58.366Z,2.87
2022-09-11T13:46:16.574Z,2.75
2022-09-11T13:47:21.738Z,3.05
2022-09-11T13:48:24.181Z,3.33
2022-09-11T13:49:39.117Z,3.00
2022-09-11T13:50:41.515Z,3.50
2022-09-11T13:51:46.041Z,3.20
2022-09-11T13:52:49.563Z,3.10
2022-09-11T13:54:15.126Z,2.80
2022-09-11T13:55:23.681Z,3.20
2022-09-11T13:57:04.943Z,2.85
2022-09-11T13:58:24.485Z,2.83
2022-09-11T13:59:48.311Z,2.92
2022-09-11T14:00:52.808Z,2.67
2022-09-11T14:02:00.994Z,2.40
2022-09-11T14:03:03.080Z,2.70
2022-09-11T14:04:11.040Z,3.03
2022-09-11T14:05:28.587Z,3.03
2022-09-11T14:06:31.495Z,3.20
2022-09-11T14:07:41.499Z,3.50
2022-09-11T14:08:50.635Z,4.43
2022-09-11T14:10:01.411Z,3.05
2022-09-11T14:11:13.457Z,3.17
2022-09-11T14:12:15.751Z,2.80
2022-09-11T14:13:20.527Z,2.70
2022-09-11T14:14:28.351Z,2.90
2022-09-11T14:15:40.388Z,3.10
2022-09-11T14:16:52.018Z,3.03
2022-09-11T14:17:54.192Z,3.17
2022-09-11T14:19:02.746Z,3.55
2022-09-11T14:20:20.628Z,3.42
2022-09-11T14:21:26.726Z,3.10
2022-09-11T14:22:34.133Z,2.90
2022-09-11T14:23:43.731Z,3.28
2022-09-11T14:25:22.487Z,2.97
2022-09-11T14:26:39.971Z,2.88
2022-09-11T14:27:43.850Z,2.83
2022-09-11T14:29:00.338Z,3.30
2022-09-11T14:30:23.099Z,3.20
2022-09-11T14:31:39.053Z,3.50
2022-09-11T14:32:41.324Z,3.35
2022-09-11T14:33:43.809Z,3.72
2022-09-11T14:34:45.915Z,3.50
2022-09-11T14:35:50.562Z,4.95
2022-09-11T14:36:54.284Z,2.83
2022-09-11T14:37:58.057Z,3.08
2022-09-11T14:39:00.645Z,3.58
2022-09-11T14:40:08.304Z,8.45
2022-09-11T14:41:10.787Z,4.40
2022-09-11T14:42:26.197Z,3.50
2022-09-11T14:43:33.745Z,17.92
2022-09-11T14:44:39.525Z,3.40
2022-09-11T14:45:41.578Z,3.47
2022-09-11T14:46:44.221Z,3.05
2022-09-11T14:47:46.958Z,2.97
2022-09-11T14:48:49.345Z,2.90
2022-09-11T14:49:56.287Z,2.90
2022-09-11T14:50:58.924Z,3.33
2022-09-11T14:52:01.238Z,2.97
2022-09-11T14:53:03.435Z,3.10
2022-09-11T14:54:06.312Z,3.30
2022-09-11T14:55:14.924Z,3.88
2022-09-11T14:56:17.055Z,3.55
2022-09-11T14:57:23.074Z,3.97
2022-09-11T14:58:26.288Z,3.85
2022-09-11T14:59:30.482Z,3.80
2022-09-11T15:00:32.923Z,3.70
2022-09-11T15:01:37.936Z,5.13
2022-09-11T15:02:40.045Z,5.50
2022-09-11T15:03:43.264Z,5.13
2022-09-11T15:04:49.366Z,5.35
2022-09-11T15:05:57.274Z,4.68
2022-09-11T15:07:00.066Z,5.30
2022-09-11T15:08:03.639Z,5.85
2022-09-11T15:09:05.660Z,5.57
2022-09-11T15:10:07.952Z,6.28
2022-09-11T15:11:13.751Z,7.65
2022-09-11T15:12:16.380Z,7.60
2022-09-11T15:13:18.665Z,6.82
2022-09-11T15:14:38.490Z,6.05
2022-09-11T15:15:45.344Z,6.35